sensor_id;sensor_type;location;lat;lon;timestamp;pressure;altitude;pressure_sealevel;temperature;humidity
24031;BME280;12240;51.142;22.486;2022-08-30T00:02:26;99544.53;;;12.79;100.00
24031;BME280;12240;51.142;22.486;2022-08-30T00:04:55;99532.66;;;12.74;100.00
24031;BME280;12240;51.142;22.486;2022-08-30T00:07:23;99568.97;;;13.01;100.00
24031;BME280;12240;51.142;22.486;2022-08-30T00:09:52;99516.47;;;12.75;100.00
24031;BME280;12240;51.142;22.486;2022-08-30T00:12:20;99568.00;;;13.02;100.00
24031;BME280;12240;51.142;22.486;2022-08-30T00:14:48;99575.69;;;13.05;100.00
24031;BME280;12240;51.142;22.486;2022-08-30T00:17:17;99570.31;;;12.97;100.00
24031;BME280;12240;51.142;22.486;2022-08-30T00:19:46;99580.00;;;12.98;100.00
24031;BME280;12240;51.142;22.486;2022-08-30T00:22:14;99533.13;;;12.69;100.00
24031;BME280;12240;51.142;22.486;2022-08-30T00:24:42;99567.44;;;12.90;100.00
24031;BME280;12240;51.142;22.486;2022-08-30T00:27:11;99452.81;;;12.21;100.00
24031;BME280;12240;51.142;22.486;2022-08-30T00:29:39;99568.94;;;12.84;100.00
24031;BME280;12240;51.142;22.486;2022-08-30T00:32:08;99576.94;;;12.84;100.00
24031;BME280;12240;51.142;22.486;2022-08-30T00:34:36;99580.59;;;12.83;100.00
24031;BME280;12240;51.142;22.486;2022-08-30T00:37:04;99579.09;;;12.81;100.00
24031;BME280;12240;51.142;22.486;2022-08-30T00:39:32;99581.25;;;12.77;100.00
24031;BME280;12240;51.142;22.486;2022-08-30T00:42:00;99569.53;;;12.70;100.00
24031;BME280;12240;51.142;22.486;2022-08-30T00:44:28;99584.25;;;12.74;100.00
24031;BME280;12240;51.142;22.486;2022-08-30T00:46:57;99582.75;;;12.72;100.00
24031;BME280;12240;51.142;22.486;2022-08-30T00:49:25;99568.84;;;12.60;100.00
24031;BME280;12240;51.142;22.486;2022-08-30T00:51:53;99593.06;;;12.67;100.00
24031;BME280;12240;51.142;22.486;2022-08-30T00:54:24;99526.06;;;12.19;100.00
24031;BME280;12240;51.142;22.486;2022-08-30T00:56:53;99592.66;;;12.54;100.00
24031;BME280;12240;51.142;22.486;2022-08-30T00:59:23;99553.44;;;12.21;100.00
24031;BME280;12240;51.142;22.486;2022-08-30T01:01:52;99605.47;;;12.42;100.00
24031;BME280;12240;51.142;22.486;2022-08-30T01:04:24;99605.25;;;12.36;100.00
24031;BME280;12240;51.142;22.486;2022-08-30T01:06:53;99560.81;;;12.01;100.00
24031;BME280;12240;51.142;22.486;2022-08-30T01:09:22;99601.19;;;12.24;100.00
24031;BME280;12240;51.142;22.486;2022-08-30T01:11:50;99573.84;;;12.04;100.00
24031;BME280;12240;51.142;22.486;2022-08-30T01:14:19;99567.94;;;11.93;100.00
24031;BME280;12240;51.142;22.486;2022-08-30T01:16:55;99605.47;;;12.17;100.00
24031;BME280;12240;51.142;22.486;2022-08-30T01:19:38;99607.97;;;12.18;100.00
24031;BME280;12240;51.142;22.486;2022-08-30T01:23:01;99611.75;;;12.08;100.00
24031;BME280;12240;51.142;22.486;2022-08-30T01:25:30;99603.84;;;11.98;100.00
24031;BME280;12240;51.142;22.486;2022-08-30T01:28:07;99608.97;;;11.92;100.00
24031;BME280;12240;51.142;22.486;2022-08-30T01:30:37;99556.16;;;11.60;100.00
24031;BME280;12240;51.142;22.486;2022-08-30T01:33:10;99591.44;;;11.71;100.00
24031;BME280;12240;51.142;22.486;2022-08-30T01:35:59;99605.31;;;11.75;100.00
24031;BME280;12240;51.142;22.486;2022-08-30T01:41:18;99606.44;;;11.90;100.00
24031;BME280;12240;51.142;22.486;2022-08-30T01:43:49;99606.91;;;11.86;100.00
24031;BME280;12240;51.142;22.486;2022-08-30T01:46:20;99595.56;;;11.84;100.00
24031;BME280;12240;51.142;22.486;2022-08-30T01:48:52;99608.84;;;11.76;100.00
24031;BME280;12240;51.142;22.486;2022-08-30T01:51:25;99602.28;;;11.70;100.00
24031;BME280;12240;51.142;22.486;2022-08-30T01:53:54;99614.47;;;11.73;100.00
24031;BME280;12240;51.142;22.486;2022-08-30T01:56:25;99595.56;;;11.48;100.00
24031;BME280;12240;51.142;22.486;2022-08-30T01:58:54;99606.53;;;11.81;100.00
24031;BME280;12240;51.142;22.486;2022-08-30T02:01:33;99611.13;;;11.88;100.00
24031;BME280;12240;51.142;22.486;2022-08-30T02:04:05;99541.03;;;11.43;100.00
24031;BME280;12240;51.142;22.486;2022-08-30T02:06:34;99597.16;;;11.77;100.00
24031;BME280;12240;51.142;22.486;2022-08-30T02:09:05;99604.94;;;11.70;100.00
24031;BME280;12240;51.142;22.486;2022-08-30T02:11:33;99604.41;;;11.66;100.00
24031;BME280;12240;51.142;22.486;2022-08-30T02:14:02;99605.25;;;11.67;100.00
24031;BME280;12240;51.142;22.486;2022-08-30T02:16:30;99592.38;;;11.62;100.00
24031;BME280;12240;51.142;22.486;2022-08-30T02:18:59;99566.84;;;11.42;100.00
24031;BME280;12240;51.142;22.486;2022-08-30T02:21:27;99556.56;;;11.30;100.00
24031;BME280;12240;51.142;22.486;2022-08-30T02:23:55;99555.41;;;11.15;100.00
24031;BME280;12240;51.142;22.486;2022-08-30T02:26:24;99560.03;;;11.13;100.00
24031;BME280;12240;51.142;22.486;2022-08-30T02:28:53;99605.75;;;11.35;100.00
24031;BME280;12240;51.142;22.486;2022-08-30T02:31:22;99588.69;;;11.28;100.00
24031;BME280;12240;51.142;22.486;2022-08-30T02:33:53;99614.22;;;11.31;100.00
24031;BME280;12240;51.142;22.486;2022-08-30T02:36:22;99604.69;;;11.28;100.00
24031;BME280;12240;51.142;22.486;2022-08-30T02:38:51;99616.50;;;11.26;100.00
24031;BME280;12240;51.142;22.486;2022-08-30T02:41:20;99605.63;;;11.19;100.00
24031;BME280;12240;51.142;22.486;2022-08-30T02:43:50;99599.75;;;11.16;100.00
24031;BME280;12240;51.142;22.486;2022-08-30T02:46:19;99603.22;;;11.16;100.00
24031;BME280;12240;51.142;22.486;2022-08-30T02:48:47;99593.91;;;11.03;100.00
24031;BME280;12240;51.142;22.486;2022-08-30T02:51:15;99609.91;;;11.03;100.00
24031;BME280;12240;51.142;22.486;2022-08-30T02:53:44;99573.09;;;10.71;100.00
24031;BME280;12240;51.142;22.486;2022-08-30T02:56:13;99609.75;;;10.87;100.00
24031;BME280;12240;51.142;22.486;2022-08-30T02:58:43;99591.44;;;10.74;100.00
24031;BME280;12240;51.142;22.486;2022-08-30T03:01:13;99619.63;;;10.94;100.00
24031;BME280;12240;51.142;22.486;2022-08-30T03:03:43;99620.09;;;10.90;100.00
24031;BME280;12240;51.142;22.486;2022-08-30T03:06:14;99613.06;;;10.89;100.00
24031;BME280;12240;51.142;22.486;2022-08-30T03:08:42;99614.06;;;10.88;100.00
24031;BME280;12240;51.142;22.486;2022-08-30T03:11:10;99612.00;;;10.82;100.00
24031;BME280;12240;51.142;22.486;2022-08-30T03:13:40;99620.00;;;10.82;100.00
24031;BME280;12240;51.142;22.486;2022-08-30T03:16:09;99617.03;;;10.85;100.00
24031;BME280;12240;51.142;22.486;2022-08-30T03:18:38;99625.75;;;10.77;100.00
24031;BME280;12240;51.142;22.486;2022-08-30T03:21:11;99622.00;;;10.70;100.00
24031;BME280;12240;51.142;22.486;2022-08-30T03:23:41;99636.31;;;10.69;100.00
24031;BME280;12240;51.142;22.486;2022-08-30T03:26:10;99632.94;;;10.67;100.00
24031;BME280;12240;51.142;22.486;2022-08-30T03:28:42;99571.56;;;10.32;100.00
24031;BME280;12240;51.142;22.486;2022-08-30T03:31:11;99632.09;;;10.67;100.00
24031;BME280;12240;51.142;22.486;2022-08-30T03:33:39;99614.06;;;10.61;100.00
24031;BME280;12240;51.142;22.486;2022-08-30T03:36:09;99622.69;;;10.72;100.00
24031;BME280;12240;51.142;22.486;2022-08-30T03:38:38;99620.72;;;10.74;100.00
24031;BME280;12240;51.142;22.486;2022-08-30T03:41:07;99625.56;;;10.61;100.00
24031;BME280;12240;51.142;22.486;2022-08-30T03:43:36;99620.41;;;10.50;100.00
24031;BME280;12240;51.142;22.486;2022-08-30T03:46:04;99586.03;;;10.29;100.00
24031;BME280;12240;51.142;22.486;2022-08-30T03:48:33;99628.19;;;10.71;100.00
24031;BME280;12240;51.142;22.486;2022-08-30T03:51:01;99612.56;;;10.85;100.00
24031;BME280;12240;51.142;22.486;2022-08-30T03:53:33;99587.34;;;10.80;100.00
24031;BME280;12240;51.142;22.486;2022-08-30T03:56:03;99484.81;;;10.21;100.00
24031;BME280;12240;51.142;22.486;2022-08-30T03:58:31;99583.66;;;10.90;100.00
24031;BME280;12240;51.142;22.486;2022-08-30T04:00:59;99625.47;;;11.25;100.00
24031;BME280;12240;51.142;22.486;2022-08-30T04:03:28;99624.88;;;11.31;100.00
24031;BME280;12240;51.142;22.486;2022-08-30T04:05:56;99581.28;;;11.05;100.00
24031;BME280;12240;51.142;22.486;2022-08-30T04:08:24;99622.91;;;11.33;100.00
24031;BME280;12240;51.142;22.486;2022-08-30T04:10:53;99626.81;;;11.38;100.00
24031;BME280;12240;51.142;22.486;2022-08-30T04:13:23;99623.88;;;11.32;100.00
24031;BME280;12240;51.142;22.486;2022-08-30T04:15:52;99625.56;;;11.33;100.00
24031;BME280;12240;51.142;22.486;2022-08-30T04:18:21;99633.41;;;11.34;100.00
24031;BME280;12240;51.142;22.486;2022-08-30T04:20:51;99590.91;;;11.15;100.00
24031;BME280;12240;51.142;22.486;2022-08-30T04:23:19;99633.50;;;11.42;100.00
24031;BME280;12240;51.142;22.486;2022-08-30T04:25:48;99636.53;;;11.47;100.00
24031;BME280;12240;51.142;22.486;2022-08-30T04:28:16;99556.91;;;11.00;100.00
24031;BME280;12240;51.142;22.486;2022-08-30T04:30:44;99619.63;;;11.39;100.00
24031;BME280;12240;51.142;22.486;2022-08-30T04:33:14;99631.03;;;11.49;100.00
24031;BME280;12240;51.142;22.486;2022-08-30T04:35:46;99562.72;;;11.13;100.00
24031;BME280;12240;51.142;22.486;2022-08-30T04:38:15;99634.75;;;11.65;100.00
24031;BME280;12240;51.142;22.486;2022-08-30T04:40:48;99636.03;;;11.79;100.00
24031;BME280;12240;51.142;22.486;2022-08-30T04:43:17;99649.13;;;11.90;100.00
24031;BME280;12240;51.142;22.486;2022-08-30T04:45:45;99603.72;;;11.82;100.00
24031;BME280;12240;51.142;22.486;2022-08-30T04:48:13;99605.44;;;12.09;100.00
24031;BME280;12240;51.142;22.486;2022-08-30T04:50:43;99644.63;;;12.59;100.00
24031;BME280;12240;51.142;22.486;2022-08-30T04:53:13;99641.91;;;12.85;100.00
24031;BME280;12240;51.142;22.486;2022-08-30T04:55:43;99602.53;;;12.95;100.00
24031;BME280;12240;51.142;22.486;2022-08-30T04:58:11;99601.31;;;13.31;100.00
24031;BME280;12240;51.142;22.486;2022-08-30T05:00:39;99645.06;;;13.96;100.00
24031;BME280;12240;51.142;22.486;2022-08-30T05:03:10;99633.31;;;14.21;100.00
24031;BME280;12240;51.142;22.486;2022-08-30T05:05:39;99642.84;;;14.56;100.00
24031;BME280;12240;51.142;22.486;2022-08-30T05:08:12;99642.53;;;14.89;100.00
24031;BME280;12240;51.142;22.486;2022-08-30T05:10:47;99640.34;;;15.01;100.00
24031;BME280;12240;51.142;22.486;2022-08-30T05:13:17;99649.00;;;15.11;100.00
24031;BME280;12240;51.142;22.486;2022-08-30T05:15:50;99607.69;;;14.97;100.00
24031;BME280;12240;51.142;22.486;2022-08-30T05:18:21;99637.31;;;15.43;100.00
24031;BME280;12240;51.142;22.486;2022-08-30T05:21:01;99640.34;;;15.62;100.00
24031;BME280;12240;51.142;22.486;2022-08-30T05:23:30;99626.47;;;15.28;100.00
24031;BME280;12240;51.142;22.486;2022-08-30T05:26:02;99643.56;;;15.27;100.00
24031;BME280;12240;51.142;22.486;2022-08-30T05:28:31;99614.81;;;15.13;100.00
24031;BME280;12240;51.142;22.486;2022-08-30T05:31:00;99655.72;;;15.38;100.00
24031;BME280;12240;51.142;22.486;2022-08-30T05:33:31;99660.47;;;15.36;100.00
24031;BME280;12240;51.142;22.486;2022-08-30T05:36:46;99659.78;;;15.42;100.00
24031;BME280;12240;51.142;22.486;2022-08-30T05:40:11;99652.34;;;15.52;100.00
24031;BME280;12240;51.142;22.486;2022-08-30T05:42:42;99662.69;;;15.63;100.00
24031;BME280;12240;51.142;22.486;2022-08-30T05:45:13;99606.59;;;15.45;100.00
24031;BME280;12240;51.142;22.486;2022-08-30T05:47:41;99653.44;;;15.88;100.00
24031;BME280;12240;51.142;22.486;2022-08-30T05:50:10;99660.41;;;15.97;100.00
24031;BME280;12240;51.142;22.486;2022-08-30T05:52:40;99643.28;;;15.98;100.00
24031;BME280;12240;51.142;22.486;2022-08-30T05:55:10;99659.28;;;16.14;100.00
24031;BME280;12240;51.142;22.486;2022-08-30T05:57:40;99655.22;;;16.32;100.00
24031;BME280;12240;51.142;22.486;2022-08-30T06:00:13;99654.22;;;16.56;100.00
24031;BME280;12240;51.142;22.486;2022-08-30T06:02:44;99579.84;;;15.97;100.00
24031;BME280;12240;51.142;22.486;2022-08-30T06:05:13;99654.75;;;16.52;100.00
24031;BME280;12240;51.142;22.486;2022-08-30T06:07:42;99658.47;;;16.65;100.00
24031;BME280;12240;51.142;22.486;2022-08-30T06:10:10;99656.72;;;17.01;100.00
24031;BME280;12240;51.142;22.486;2022-08-30T06:12:39;99605.72;;;16.64;100.00
24031;BME280;12240;51.142;22.486;2022-08-30T06:15:08;99652.06;;;17.10;100.00
24031;BME280;12240;51.142;22.486;2022-08-30T06:17:36;99662.81;;;17.24;100.00
24031;BME280;12240;51.142;22.486;2022-08-30T06:20:07;99611.75;;;16.95;100.00
24031;BME280;12240;51.142;22.486;2022-08-30T06:22:35;99638.16;;;17.21;100.00
24031;BME280;12240;51.142;22.486;2022-08-30T06:25:06;99675.03;;;17.92;100.00
24031;BME280;12240;51.142;22.486;2022-08-30T06:27:34;99630.47;;;17.96;100.00
24031;BME280;12240;51.142;22.486;2022-08-30T06:30:04;99661.38;;;18.42;100.00
24031;BME280;12240;51.142;22.486;2022-08-30T06:32:36;99677.69;;;18.83;100.00
24031;BME280;12240;51.142;22.486;2022-08-30T06:35:06;99642.47;;;18.97;100.00
24031;BME280;12240;51.142;22.486;2022-08-30T06:37:35;99665.22;;;19.63;100.00
24031;BME280;12240;51.142;22.486;2022-08-30T06:40:04;99677.28;;;19.26;100.00
24031;BME280;12240;51.142;22.486;2022-08-30T06:42:33;99676.06;;;19.29;100.00
24031;BME280;12240;51.142;22.486;2022-08-30T06:45:02;99688.06;;;19.20;100.00
24031;BME280;12240;51.142;22.486;2022-08-30T06:47:38;99683.66;;;18.78;100.00
24031;BME280;12240;51.142;22.486;2022-08-30T06:50:09;99658.38;;;18.51;100.00
24031;BME280;12240;51.142;22.486;2022-08-30T06:52:40;99687.22;;;18.57;100.00
24031;BME280;12240;51.142;22.486;2022-08-30T06:55:12;99690.56;;;18.59;100.00
24031;BME280;12240;51.142;22.486;2022-08-30T06:57:41;99697.72;;;19.01;100.00
24031;BME280;12240;51.142;22.486;2022-08-30T07:00:15;99688.91;;;19.20;100.00
24031;BME280;12240;51.142;22.486;2022-08-30T07:02:43;99651.72;;;19.16;100.00
24031;BME280;12240;51.142;22.486;2022-08-30T07:05:12;99675.72;;;19.38;100.00
24031;BME280;12240;51.142;22.486;2022-08-30T07:07:45;99688.19;;;19.39;100.00
24031;BME280;12240;51.142;22.486;2022-08-30T07:10:15;99694.44;;;20.07;100.00
24031;BME280;12240;51.142;22.486;2022-08-30T07:12:44;99684.72;;;20.32;100.00
24031;BME280;12240;51.142;22.486;2022-08-30T07:15:13;99642.28;;;20.39;100.00
24031;BME280;12240;51.142;22.486;2022-08-30T07:17:41;99686.13;;;21.06;100.00
24031;BME280;12240;51.142;22.486;2022-08-30T07:20:28;99655.69;;;21.17;100.00
24031;BME280;12240;51.142;22.486;2022-08-30T07:23:09;99681.38;;;20.82;100.00
24031;BME280;12240;51.142;22.486;2022-08-30T07:25:39;99682.22;;;20.63;100.00
24031;BME280;12240;51.142;22.486;2022-08-30T07:28:09;99659.94;;;20.61;100.00
24031;BME280;12240;51.142;22.486;2022-08-30T07:30:40;99681.75;;;21.05;100.00
24031;BME280;12240;51.142;22.486;2022-08-30T07:33:09;99688.16;;;21.30;100.00
24031;BME280;12240;51.142;22.486;2022-08-30T07:35:37;99682.84;;;21.48;100.00
24031;BME280;12240;51.142;22.486;2022-08-30T07:38:05;99685.75;;;21.60;100.00
24031;BME280;12240;51.142;22.486;2022-08-30T07:40:34;99679.44;;;21.66;100.00
24031;BME280;12240;51.142;22.486;2022-08-30T07:43:05;99680.06;;;21.17;100.00
24031;BME280;12240;51.142;22.486;2022-08-30T07:45:33;99643.09;;;20.59;100.00
24031;BME280;12240;51.142;22.486;2022-08-30T07:48:04;99681.59;;;20.74;100.00
24031;BME280;12240;51.142;22.486;2022-08-30T07:50:32;99640.53;;;21.03;100.00
24031;BME280;12240;51.142;22.486;2022-08-30T07:53:02;99686.72;;;21.21;100.00
24031;BME280;12240;51.142;22.486;2022-08-30T07:55:34;99701.91;;;21.29;100.00
24031;BME280;12240;51.142;22.486;2022-08-30T07:58:02;99656.69;;;21.29;100.00
24031;BME280;12240;51.142;22.486;2022-08-30T08:00:31;99653.03;;;20.91;100.00
24031;BME280;12240;51.142;22.486;2022-08-30T08:03:05;99663.22;;;21.09;100.00
24031;BME280;12240;51.142;22.486;2022-08-30T08:05:43;99651.16;;;20.85;100.00
24031;BME280;12240;51.142;22.486;2022-08-30T08:08:13;99665.56;;;20.66;100.00
24031;BME280;12240;51.142;22.486;2022-08-30T08:10:41;99689.50;;;21.02;100.00
24031;BME280;12240;51.142;22.486;2022-08-30T08:13:10;99693.00;;;20.96;100.00
24031;BME280;12240;51.142;22.486;2022-08-30T08:15:39;99697.22;;;20.98;100.00
24031;BME280;12240;51.142;22.486;2022-08-30T08:18:07;99658.63;;;21.09;100.00
24031;BME280;12240;51.142;22.486;2022-08-30T08:20:36;99703.50;;;21.49;100.00
24031;BME280;12240;51.142;22.486;2022-08-30T08:23:06;99657.59;;;21.10;100.00
24031;BME280;12240;51.142;22.486;2022-08-30T08:25:39;99699.44;;;21.14;100.00
24031;BME280;12240;51.142;22.486;2022-08-30T08:28:07;99697.78;;;20.94;100.00
24031;BME280;12240;51.142;22.486;2022-08-30T08:30:37;99703.00;;;20.69;100.00
24031;BME280;12240;51.142;22.486;2022-08-30T08:33:05;99685.94;;;20.75;100.00
24031;BME280;12240;51.142;22.486;2022-08-30T08:35:33;99674.63;;;21.17;100.00
24031;BME280;12240;51.142;22.486;2022-08-30T08:38:02;99670.59;;;21.46;100.00
24031;BME280;12240;51.142;22.486;2022-08-30T08:43:29;99698.38;;;21.28;100.00
24031;BME280;12240;51.142;22.486;2022-08-30T08:48:57;99687.81;;;22.33;100.00
24031;BME280;12240;51.142;22.486;2022-08-30T08:51:37;99692.78;;;22.12;100.00
24031;BME280;12240;51.142;22.486;2022-08-30T08:54:46;99693.66;;;22.86;100.00
24031;BME280;12240;51.142;22.486;2022-08-30T08:57:16;99678.19;;;22.37;100.00
24031;BME280;12240;51.142;22.486;2022-08-30T08:59:52;99685.97;;;21.58;100.00
24031;BME280;12240;51.142;22.486;2022-08-30T09:02:27;99653.50;;;21.45;100.00
24031;BME280;12240;51.142;22.486;2022-08-30T09:05:00;99685.06;;;22.40;100.00
24031;BME280;12240;51.142;22.486;2022-08-30T09:07:30;99680.97;;;22.80;100.00
24031;BME280;12240;51.142;22.486;2022-08-30T09:09:59;99672.34;;;22.09;100.00
24031;BME280;12240;51.142;22.486;2022-08-30T09:12:28;99685.50;;;22.06;100.00
24031;BME280;12240;51.142;22.486;2022-08-30T09:15:18;99697.00;;;22.63;98.20
24031;BME280;12240;51.142;22.486;2022-08-30T09:18:00;99651.91;;;23.41;89.78
24031;BME280;12240;51.142;22.486;2022-08-30T09:20:42;99682.16;;;23.27;87.23
24031;BME280;12240;51.142;22.486;2022-08-30T09:26:05;99684.03;;;22.65;90.83
24031;BME280;12240;51.142;22.486;2022-08-30T09:28:49;99683.25;;;22.58;95.69
24031;BME280;12240;51.142;22.486;2022-08-30T09:31:30;99685.78;;;23.02;90.78
24031;BME280;12240;51.142;22.486;2022-08-30T09:34:08;99682.53;;;22.94;88.75
24031;BME280;12240;51.142;22.486;2022-08-30T09:36:47;99689.41;;;23.98;81.83
24031;BME280;12240;51.142;22.486;2022-08-30T09:39:34;99675.53;;;23.59;82.24
24031;BME280;12240;51.142;22.486;2022-08-30T09:42:22;99681.59;;;22.82;82.61
24031;BME280;12240;51.142;22.486;2022-08-30T09:44:54;99619.56;;;22.79;84.32
24031;BME280;12240;51.142;22.486;2022-08-30T09:47:42;99685.53;;;23.04;87.76
24031;BME280;12240;51.142;22.486;2022-08-30T09:50:18;99667.97;;;22.64;85.28
24031;BME280;12240;51.142;22.486;2022-08-30T09:53:15;99675.66;;;22.42;86.85
24031;BME280;12240;51.142;22.486;2022-08-30T09:56:24;99693.78;;;22.73;86.10
24031;BME280;12240;51.142;22.486;2022-08-30T10:01:45;99694.81;;;22.47;89.39
24031;BME280;12240;51.142;22.486;2022-08-30T10:04:28;99660.03;;;22.07;91.65
24031;BME280;12240;51.142;22.486;2022-08-30T10:10:20;99686.00;;;23.01;85.16
24031;BME280;12240;51.142;22.486;2022-08-30T10:16:03;99686.06;;;23.37;80.42
24031;BME280;12240;51.142;22.486;2022-08-30T10:22:13;99648.81;;;23.38;77.16
24031;BME280;12240;51.142;22.486;2022-08-30T10:24:58;99688.59;;;23.50;78.02
24031;BME280;12240;51.142;22.486;2022-08-30T10:27:36;99681.34;;;23.08;77.52
24031;BME280;12240;51.142;22.486;2022-08-30T10:30:15;99684.19;;;23.13;80.16
24031;BME280;12240;51.142;22.486;2022-08-30T10:33:11;99691.69;;;23.54;80.58
24031;BME280;12240;51.142;22.486;2022-08-30T10:35:53;99680.41;;;23.14;82.12
24031;BME280;12240;51.142;22.486;2022-08-30T10:38:33;99685.78;;;24.04;81.52
24031;BME280;12240;51.142;22.486;2022-08-30T10:44:29;99655.84;;;24.04;78.95
24031;BME280;12240;51.142;22.486;2022-08-30T10:49:47;99662.03;;;23.82;78.77
24031;BME280;12240;51.142;22.486;2022-08-30T10:55:32;99682.66;;;24.31;74.63
24031;BME280;12240;51.142;22.486;2022-08-30T10:58:05;99679.16;;;24.42;72.26
24031;BME280;12240;51.142;22.486;2022-08-30T11:07:08;99678.94;;;25.24;69.54
24031;BME280;12240;51.142;22.486;2022-08-30T11:10:11;99666.94;;;24.21;71.54
24031;BME280;12240;51.142;22.486;2022-08-30T11:16:17;99669.25;;;24.06;73.59
24031;BME280;12240;51.142;22.486;2022-08-30T11:19:20;99613.28;;;23.69;75.25
24031;BME280;12240;51.142;22.486;2022-08-30T11:22:14;99624.03;;;22.73;82.84
24031;BME280;12240;51.142;22.486;2022-08-30T11:25:16;99670.50;;;22.83;83.05
24031;BME280;12240;51.142;22.486;2022-08-30T11:28:05;99668.81;;;22.82;83.54
24031;BME280;12240;51.142;22.486;2022-08-30T11:55:22;99680.16;;;24.17;72.21
24031;BME280;12240;51.142;22.486;2022-08-30T11:58:15;99666.38;;;24.01;70.70
24031;BME280;12240;51.142;22.486;2022-08-30T12:00:47;99675.53;;;25.17;70.90
24031;BME280;12240;51.142;22.486;2022-08-30T12:03:58;99664.22;;;25.88;66.55
24031;BME280;12240;51.142;22.486;2022-08-30T12:12:11;99660.72;;;25.24;63.26
24031;BME280;12240;51.142;22.486;2022-08-30T12:14:57;99618.22;;;25.00;62.91
24031;BME280;12240;51.142;22.486;2022-08-30T12:20:43;99658.97;;;24.72;65.19
24031;BME280;12240;51.142;22.486;2022-08-30T12:23:38;99649.72;;;24.73;63.58
24031;BME280;12240;51.142;22.486;2022-08-30T12:26:27;99661.06;;;24.59;64.95
24031;BME280;12240;51.142;22.486;2022-08-30T12:31:58;99642.91;;;24.18;64.37
24031;BME280;12240;51.142;22.486;2022-08-30T12:34:35;99606.59;;;23.94;65.16
24031;BME280;12240;51.142;22.486;2022-08-30T12:37:33;99613.09;;;23.82;66.24
24031;BME280;12240;51.142;22.486;2022-08-30T12:40:22;99636.88;;;24.39;66.02
24031;BME280;12240;51.142;22.486;2022-08-30T12:42:59;99644.25;;;24.50;65.74
24031;BME280;12240;51.142;22.486;2022-08-30T12:45:42;99587.28;;;24.02;66.06
24031;BME280;12240;51.142;22.486;2022-08-30T12:48:19;99546.84;;;23.35;68.29
24031;BME280;12240;51.142;22.486;2022-08-30T12:50:57;99634.47;;;23.78;71.36
24031;BME280;12240;51.142;22.486;2022-08-30T12:53:39;99626.31;;;23.49;71.17
24031;BME280;12240;51.142;22.486;2022-08-30T12:56:16;99631.09;;;23.35;72.58
24031;BME280;12240;51.142;22.486;2022-08-30T12:59:05;99632.75;;;23.36;69.87
24031;BME280;12240;51.142;22.486;2022-08-30T13:01:34;99555.75;;;23.24;69.24
24031;BME280;12240;51.142;22.486;2022-08-30T13:04:26;99629.31;;;23.59;68.08
24031;BME280;12240;51.142;22.486;2022-08-30T13:06:58;99632.22;;;23.46;65.89
24031;BME280;12240;51.142;22.486;2022-08-30T13:12:08;99620.75;;;23.73;66.46
24031;BME280;12240;51.142;22.486;2022-08-30T13:14:39;99490.09;;;22.97;64.48
24031;BME280;12240;51.142;22.486;2022-08-30T13:17:25;99573.19;;;24.05;64.87
24031;BME280;12240;51.142;22.486;2022-08-30T13:22:38;99621.31;;;24.69;63.72
24031;BME280;12240;51.142;22.486;2022-08-30T13:25:09;99599.69;;;24.10;63.79
24031;BME280;12240;51.142;22.486;2022-08-30T13:27:39;99561.91;;;23.49;65.09
24031;BME280;12240;51.142;22.486;2022-08-30T13:30:12;99614.50;;;24.26;63.92
24031;BME280;12240;51.142;22.486;2022-08-30T13:32:43;99601.91;;;23.72;64.88
24031;BME280;12240;51.142;22.486;2022-08-30T13:35:11;99595.31;;;23.38;67.29
24031;BME280;12240;51.142;22.486;2022-08-30T13:37:41;99597.06;;;23.62;66.27
24031;BME280;12240;51.142;22.486;2022-08-30T13:40:20;99567.53;;;24.07;66.15
24031;BME280;12240;51.142;22.486;2022-08-30T13:42:49;99606.03;;;24.80;63.65
24031;BME280;12240;51.142;22.486;2022-08-30T13:45:19;99606.38;;;24.95;63.84
24031;BME280;12240;51.142;22.486;2022-08-30T13:48:07;99590.38;;;24.17;64.61
24031;BME280;12240;51.142;22.486;2022-08-30T13:50:40;99603.66;;;23.96;67.17
24031;BME280;12240;51.142;22.486;2022-08-30T13:53:16;99611.72;;;24.90;65.82
24031;BME280;12240;51.142;22.486;2022-08-30T13:56:05;99508.88;;;24.23;63.95
24031;BME280;12240;51.142;22.486;2022-08-30T13:58:33;99570.63;;;25.31;63.51
24031;BME280;12240;51.142;22.486;2022-08-30T14:01:02;99595.66;;;26.12;61.90
24031;BME280;12240;51.142;22.486;2022-08-30T14:03:30;99596.19;;;26.64;61.96
24031;BME280;12240;51.142;22.486;2022-08-30T14:05:58;99612.13;;;27.05;61.03
24031;BME280;12240;51.142;22.486;2022-08-30T14:08:47;99603.44;;;24.85;64.04
24031;BME280;12240;51.142;22.486;2022-08-30T14:11:24;99600.34;;;24.47;64.13
24031;BME280;12240;51.142;22.486;2022-08-30T14:13:56;99578.31;;;24.83;63.24
24031;BME280;12240;51.142;22.486;2022-08-30T14:16:44;99592.25;;;25.49;60.94
24031;BME280;12240;51.142;22.486;2022-08-30T14:19:14;99602.72;;;24.78;63.76
24031;BME280;12240;51.142;22.486;2022-08-30T14:21:44;99599.13;;;24.19;65.68
24031;BME280;12240;51.142;22.486;2022-08-30T14:24:16;99569.38;;;23.54;68.75
24031;BME280;12240;51.142;22.486;2022-08-30T14:26:49;99595.75;;;23.35;69.74
24031;BME280;12240;51.142;22.486;2022-08-30T14:29:22;99583.09;;;23.59;67.93
24031;BME280;12240;51.142;22.486;2022-08-30T14:31:51;99595.47;;;22.89;68.92
24031;BME280;12240;51.142;22.486;2022-08-30T14:34:20;99601.47;;;22.48;70.02
24031;BME280;12240;51.142;22.486;2022-08-30T14:36:49;99592.88;;;22.33;69.58
24031;BME280;12240;51.142;22.486;2022-08-30T14:39:19;99590.38;;;22.32;70.14
24031;BME280;12240;51.142;22.486;2022-08-30T14:41:52;99597.34;;;22.46;71.08